Time;durP1;ratioP1;P1;durP2;ratioP2;P2;SDS_P1;SDS_P2;PMS_P1;PMS_P2;Temp;Humidity;BMP_temperature;BMP_pressure;BME280_temperature;BME280_humidity;BME280_pressure;Samples;Min_cycle;Max_cycle;Signal;HPM_P1;HPM_P2
2022/05/09 00:00:14;;;;;;;3.42;1.80;;;;;;;19.70;29.25;102227.63;5047330;28;20048;-73
2022/05/09 00:02:41;;;;;;;4.18;1.90;;;;;;;19.66;29.57;102226.16;5074574;28;20083;-73
2022/05/09 00:05:10;;;;;;;3.22;1.60;;;;;;;19.65;29.37;102235.41;5048033;28;20529;-73
2022/05/09 00:07:37;;;;;;;4.20;1.73;;;;;;;19.60;29.45;102227.53;5050198;28;20052;-73
2022/05/09 00:10:03;;;;;;;3.50;1.70;;;;;;;19.58;29.44;102228.69;5052247;28;20057;-73
2022/05/09 00:12:32;;;;;;;3.38;1.65;;;;;;;19.56;29.15;102223.28;5046791;28;20107;-73
2022/05/09 00:14:58;;;;;;;3.70;1.67;;;;;;;19.54;29.61;102221.66;5045071;28;20470;-73
2022/05/09 00:17:25;;;;;;;3.90;1.60;;;;;;;19.51;29.24;102217.28;5049267;28;20480;-73
2022/05/09 00:19:52;;;;;;;2.78;1.63;;;;;;;19.49;29.44;102219.28;5048934;28;20391;-72
2022/05/09 00:22:19;;;;;;;4.28;1.60;;;;;;;19.47;29.50;102220.38;5054120;28;20052;-73
2022/05/09 00:24:45;;;;;;;3.92;1.90;;;;;;;19.46;29.34;102215.88;5056906;28;20056;-74
2022/05/09 00:27:12;;;;;;;2.55;1.38;;;;;;;19.42;29.20;102212.50;5044941;28;20448;-73
2022/05/09 00:29:38;;;;;;;3.80;1.70;;;;;;;19.40;29.65;102211.75;5051375;28;20103;-73
2022/05/09 00:32:05;;;;;;;3.25;1.98;;;;;;;19.39;29.74;102210.88;5056164;28;20471;-73
2022/05/09 00:34:36;;;;;;;2.60;1.58;;;;;;;19.37;29.31;102210.13;5052941;28;20262;-73
2022/05/09 00:37:03;;;;;;;3.50;1.80;;;;;;;19.37;29.63;102214.75;5049782;28;20570;-72
2022/05/09 00:39:32;;;;;;;4.10;2.30;;;;;;;19.34;29.25;102206.75;5056523;28;20045;-73
2022/05/09 00:42:09;;;;;;;3.00;1.70;;;;;;;19.37;29.92;102209.25;5039544;28;20048;-73
2022/05/09 00:44:38;;;;;;;3.88;1.70;;;;;;;19.31;29.58;102212.50;5060525;28;20047;-73
2022/05/09 00:47:05;;;;;;;3.60;1.60;;;;;;;19.29;29.42;102209.88;5053202;28;20121;-73
2022/05/09 00:49:45;;;;;;;4.05;2.00;;;;;;;19.31;29.95;102218.88;5051744;28;20044;-73
2022/05/09 00:52:14;;;;;;;2.92;1.45;;;;;;;19.29;29.69;102204.38;5059186;28;20041;-72
2022/05/09 00:54:58;;;;;;;3.83;1.63;;;;;;;19.28;30.22;102218.25;5060391;28;20459;-73
2022/05/09 00:57:30;;;;;;;3.85;1.70;;;;;;;19.26;29.80;102212.03;5053407;28;20048;-73
2022/05/09 01:00:03;;;;;;;3.42;1.92;;;;;;;19.24;29.79;102206.63;5069558;28;20065;-73
2022/05/09 01:02:31;;;;;;;4.50;1.85;;;;;;;19.22;30.23;102205.88;5056484;28;20049;-73
2022/05/09 01:04:59;;;;;;;4.18;1.90;;;;;;;19.24;30.32;102211.25;5054036;28;20045;-73
2022/05/09 01:07:28;;;;;;;2.60;1.80;;;;;;;19.23;29.75;102209.50;5059884;28;20052;-73
2022/05/09 01:09:54;;;;;;;3.28;1.83;;;;;;;19.20;29.74;102202.34;5050191;28;20048;-73
2022/05/09 01:12:27;;;;;;;4.53;2.10;;;;;;;19.21;30.14;102206.88;5055311;28;20433;-73
2022/05/09 01:14:54;;;;;;;4.72;1.80;;;;;;;19.15;30.37;102204.63;5049543;28;20045;-73
2022/05/09 01:17:23;;;;;;;3.83;2.03;;;;;;;19.18;30.04;102203.50;5054902;28;20045;-73
2022/05/09 01:19:52;;;;;;;3.63;1.90;;;;;;;19.16;30.38;102200.88;5051698;28;20067;-73
2022/05/09 01:22:24;;;;;;;4.47;1.90;;;;;;;19.16;30.29;102200.00;5059805;28;20056;-73
2022/05/09 01:24:52;;;;;;;3.17;2.33;;;;;;;19.13;30.21;102200.25;5050394;28;20482;-73
2022/05/09 01:27:19;;;;;;;2.70;1.67;;;;;;;19.11;30.72;102196.72;5055536;28;20048;-73
2022/05/09 01:29:47;;;;;;;3.80;1.98;;;;;;;19.09;30.93;102196.88;5052286;28;20048;-73
2022/05/09 01:32:17;;;;;;;3.72;2.10;;;;;;;19.09;30.72;102188.63;5051558;28;20052;-73
2022/05/09 01:34:49;;;;;;;4.28;1.70;;;;;;;19.08;30.78;102191.50;5047043;28;20493;-73
2022/05/09 01:37:18;;;;;;;3.55;2.00;;;;;;;19.02;31.26;102197.50;5054513;28;20093;-73
2022/05/09 01:39:45;;;;;;;3.60;1.85;;;;;;;19.02;30.77;102197.50;5054235;28;20057;-73
2022/05/09 01:42:12;;;;;;;4.30;2.25;;;;;;;18.99;31.06;102185.72;5054228;28;20057;-73
2022/05/09 01:44:39;;;;;;;3.50;2.10;;;;;;;18.98;31.04;102191.34;5053604;28;20106;-73
2022/05/09 01:49:51;;;;;;;4.30;2.20;;;;;;;18.92;31.54;102191.84;5064674;28;20083;-73
2022/05/09 01:52:19;;;;;;;4.25;2.03;;;;;;;18.91;31.49;102198.38;5051813;28;20402;-73
2022/05/09 01:54:45;;;;;;;3.92;2.30;;;;;;;18.88;31.88;102199.47;5052633;28;20048;-73
2022/05/09 01:57:13;;;;;;;5.38;2.25;;;;;;;18.87;31.83;102199.59;5051532;28;20052;-73
2022/05/09 01:59:41;;;;;;;4.15;2.10;;;;;;;18.85;31.80;102190.59;5045228;28;20106;-73
2022/05/09 02:02:15;;;;;;;3.88;2.20;;;;;;;18.86;32.19;102189.63;5051943;28;20478;-74
2022/05/09 02:04:42;;;;;;;4.38;2.70;;;;;;;18.79;31.54;102188.31;5051960;28;20055;-73
2022/05/09 02:07:14;;;;;;;4.72;2.42;;;;;;;18.78;32.46;102187.44;5048145;28;20332;-73
2022/05/09 02:09:45;;;;;;;3.97;2.30;;;;;;;18.73;32.06;102189.69;5048923;28;20060;-73
2022/05/09 02:12:13;;;;;;;3.22;1.80;;;;;;;18.71;31.98;102190.81;5051678;28;20055;-72
2022/05/09 02:14:40;;;;;;;3.08;2.03;;;;;;;18.65;31.64;102189.44;5054074;28;20075;-73
2022/05/09 02:17:08;;;;;;;3.30;2.10;;;;;;;18.62;31.84;102190.56;5046509;28;20044;-73
2022/05/09 02:19:35;;;;;;;3.70;2.00;;;;;;;18.57;31.79;102190.06;5048610;28;20078;-73
2022/05/09 02:22:02;;;;;;;4.85;2.05;;;;;;;18.54;31.96;102182.00;5053349;28;20338;-73
2022/05/09 02:24:30;;;;;;;3.40;2.20;;;;;;;18.51;32.08;102190.50;5052984;28;20055;-73
2022/05/09 02:26:57;;;;;;;3.85;2.35;;;;;;;18.46;31.92;102192.72;5054595;28;20558;-73
2022/05/09 02:29:25;;;;;;;4.40;2.20;;;;;;;18.43;32.50;102182.00;5058281;28;20053;-73
2022/05/09 02:31:52;;;;;;;4.15;2.10;;;;;;;18.40;32.00;102187.72;5043664;28;20428;-73
2022/05/09 02:34:19;;;;;;;4.97;1.98;;;;;;;18.37;32.36;102178.81;5059421;28;20641;-72
2022/05/09 02:36:46;;;;;;;3.38;2.17;;;;;;;18.35;32.18;102178.97;5053230;28;20049;-73
2022/05/09 02:39:12;;;;;;;4.03;2.00;;;;;;;18.33;32.13;102180.06;5045931;28;20056;-73
2022/05/09 02:41:39;;;;;;;4.97;2.05;;;;;;;18.31;32.16;102180.19;5043818;28;20048;-74
2022/05/09 02:44:06;;;;;;;3.53;2.00;;;;;;;18.28;32.51;102172.22;5053959;28;20041;-73
2022/05/09 02:46:33;;;;;;;3.90;2.00;;;;;;;18.26;32.36;102176.94;5050208;28;20433;-73
2022/05/09 02:49:02;;;;;;;5.63;2.58;;;;;;;18.23;32.65;102172.53;5057789;28;20044;-73
2022/05/09 02:51:29;;;;;;;3.60;1.85;;;;;;;18.21;32.28;102176.41;5040656;28;20110;-73
2022/05/09 02:53:56;;;;;;;4.72;2.10;;;;;;;18.20;32.45;102177.44;5047933;28;20080;-73
2022/05/09 02:56:23;;;;;;;4.25;2.10;;;;;;;18.18;32.60;102177.53;5048280;28;20041;-73
2022/05/09 02:58:50;;;;;;;4.13;2.17;;;;;;;18.16;32.89;102170.41;5036666;28;20390;-73
2022/05/09 03:01:16;;;;;;;3.47;2.10;;;;;;;18.13;32.78;102166.00;5045879;28;20037;-73
2022/05/09 03:06:31;;;;;;;3.90;2.45;;;;;;;18.08;32.66;102171.00;5037378;28;20067;-73
2022/05/09 03:08:57;;;;;;;3.17;2.05;;;;;;;18.06;33.17;102169.34;5040023;28;20048;-73
2022/05/09 03:11:24;;;;;;;3.85;2.17;;;;;;;18.04;32.85;102169.47;5047100;28;20045;-73
2022/05/09 03:13:50;;;;;;;4.05;2.08;;;;;;;18.02;32.88;102165.97;5058070;28;20494;-72
2022/05/09 03:16:19;;;;;;;3.40;2.15;;;;;;;18.00;33.09;102169.84;5066931;28;20457;-73
2022/05/09 03:18:47;;;;;;;4.93;2.10;;;;;;;17.99;33.03;102168.06;5063246;28;20070;-73
2022/05/09 03:21:14;;;;;;;4.43;2.10;;;;;;;17.99;32.96;102170.81;5052668;28;20040;-73
2022/05/09 03:23:41;;;;;;;2.80;1.85;;;;;;;17.96;33.26;102168.31;5067048;28;20053;-72
2022/05/09 03:26:07;;;;;;;3.97;2.05;;;;;;;17.95;32.72;102163.84;5067165;28;20052;-73
2022/05/09 03:28:34;;;;;;;4.10;2.30;;;;;;;17.93;32.88;102163.06;5052452;28;20564;-73
2022/05/09 03:31:01;;;;;;;4.88;2.28;;;;;;;17.91;33.22;102162.28;5048182;28;20057;-73
2022/05/09 03:33:28;;;;;;;4.32;2.20;;;;;;;17.88;33.16;102157.91;5066243;28;20055;-73
2022/05/09 03:35:57;;;;;;;4.50;2.40;;;;;;;17.87;32.74;102164.41;5051749;28;20048;-72
2022/05/09 03:38:25;;;;;;;4.38;2.33;;;;;;;17.83;33.13;102155.53;5049561;28;20420;-73
2022/05/09 03:40:52;;;;;;;5.05;2.30;;;;;;;17.82;33.33;102164.75;5048151;28;20044;-73
2022/05/09 03:43:18;;;;;;;4.75;2.38;;;;;;;17.81;32.91;102159.38;5043958;28;20102;-73
2022/05/09 03:45:48;;;;;;;5.20;2.30;;;;;;;17.81;32.99;102162.13;5078367;28;20045;-73
2022/05/09 03:48:15;;;;;;;4.80;2.55;;;;;;;17.78;32.83;102167.88;5056503;28;20479;-73
2022/05/09 03:50:41;;;;;;;5.70;2.50;;;;;;;17.77;33.15;102164.25;5049713;28;20110;-73
2022/05/09 03:53:08;;;;;;;4.43;2.30;;;;;;;17.77;33.16;102168.84;5052317;28;20056;-73
2022/05/09 03:55:35;;;;;;;5.22;2.20;;;;;;;17.75;33.16;102168.97;5052937;28;20075;-73
2022/05/09 03:58:03;;;;;;;3.58;2.10;;;;;;;17.73;33.06;102162.72;5056014;28;20059;-73
2022/05/09 04:00:32;;;;;;;4.18;2.05;;;;;;;17.74;33.03;102166.34;5052920;28;20120;-73
2022/05/09 04:03:00;;;;;;;4.72;2.20;;;;;;;17.71;33.49;102164.69;5053289;28;20044;-73
2022/05/09 04:05:30;;;;;;;4.72;2.17;;;;;;;17.69;33.13;102163.94;5049525;28;20045;-73
2022/05/09 04:08:01;;;;;;;4.20;2.40;;;;;;;17.70;33.49;102168.47;5053708;28;20052;-73
2022/05/09 04:10:32;;;;;;;4.60;2.50;;;;;;;17.69;33.58;102165.81;5064095;28;20049;-73
2022/05/09 04:13:00;;;;;;;4.00;2.33;;;;;;;17.67;33.20;102170.53;5052041;28;20075;-73
2022/05/09 04:18:17;;;;;;;4.45;2.58;;;;;;;17.62;33.44;102165.41;5062457;28;20557;-73
2022/05/09 04:20:46;;;;;;;5.70;2.88;;;;;;;17.63;33.47;102169.00;5049308;28;20140;-73
2022/05/09 04:23:13;;;;;;;4.43;2.50;;;;;;;17.60;33.44;102172.84;5054393;28;20099;-73
2022/05/09 04:25:40;;;;;;;4.90;2.78;;;;;;;17.60;33.32;102174.72;5057094;28;20056;-72
2022/05/09 04:28:12;;;;;;;4.68;2.60;;;;;;;17.59;33.69;102170.22;5049575;28;20128;-73
2022/05/09 04:30:39;;;;;;;4.10;2.33;;;;;;;17.59;33.87;102178.44;5049102;28;20087;-73
2022/05/09 04:33:07;;;;;;;5.63;2.55;;;;;;;17.59;33.44;102172.97;5048720;28;20045;-73
2022/05/09 04:35:36;;;;;;;5.63;2.53;;;;;;;17.59;33.71;102172.97;5052721;28;20055;-73
2022/05/09 04:38:04;;;;;;;5.40;2.63;;;;;;;17.58;33.65;102173.94;5041543;28;20050;-73
2022/05/09 04:40:33;;;;;;;4.93;2.20;;;;;;;17.60;33.77;102174.72;5052523;28;20053;-73
2022/05/09 04:43:00;;;;;;;4.38;2.88;;;;;;;17.57;33.62;102173.06;5051388;28;20053;-73
2022/05/09 04:45:29;;;;;;;6.30;3.25;;;;;;;17.59;33.83;102173.84;5054445;28;20053;-73
2022/05/09 04:47:56;;;;;;;4.55;2.72;;;;;;;17.57;33.98;102173.06;5052975;28;20090;-74
2022/05/09 04:50:27;;;;;;;4.82;2.45;;;;;;;17.60;33.70;102177.47;5051331;28;20049;-73
2022/05/09 04:52:53;;;;;;;4.55;2.38;;;;;;;17.57;33.87;102175.81;5045567;28;20045;-73
2022/05/09 04:55:21;;;;;;;4.00;2.45;;;;;;;17.57;33.79;102175.81;5049689;28;20102;-72
2022/05/09 04:57:49;;;;;;;5.05;2.60;;;;;;;17.60;34.15;102174.72;5052372;28;20071;-72
2022/05/09 05:00:19;;;;;;;5.05;2.80;;;;;;;17.60;33.81;102175.59;5071194;28;20133;-72
2022/05/09 05:02:45;;;;;;;5.10;2.95;;;;;;;17.60;34.13;102178.34;5061548;28;20570;-72
2022/05/09 05:05:13;;;;;;;4.13;2.28;;;;;;;17.62;34.29;102172.78;5053472;28;20044;-72
2022/05/09 05:07:40;;;;;;;4.18;2.83;;;;;;;17.65;34.19;102172.53;5052901;28;20044;-72
2022/05/09 05:10:08;;;;;;;4.00;2.38;;;;;;;17.68;34.30;102173.19;5057430;28;20048;-73
2022/05/09 05:12:34;;;;;;;4.65;2.60;;;;;;;17.73;34.62;102167.31;5053206;28;20129;-72
2022/05/09 05:15:02;;;;;;;4.85;2.58;;;;;;;17.78;34.72;102174.25;5052065;28;20106;-73
2022/05/09 05:17:29;;;;;;;4.38;2.65;;;;;;;17.84;34.74;102178.38;5057553;28;20452;-72
2022/05/09 05:19:55;;;;;;;5.10;2.50;;;;;;;17.93;34.99;102179.56;5045762;28;20051;-73
2022/05/09 05:22:22;;;;;;;5.15;2.70;;;;;;;18.03;34.91;102172.34;5055326;28;20101;-73
2022/05/09 05:24:52;;;;;;;4.18;2.80;;;;;;;18.18;34.95;102182.16;5051186;28;20541;-73
2022/05/09 05:27:21;;;;;;;5.45;3.05;;;;;;;18.32;34.61;102181.94;5048580;28;20044;-73
2022/05/09 05:29:55;;;;;;;4.75;2.58;;;;;;;18.51;34.71;102175.88;5050007;28;20049;-72
2022/05/09 05:32:25;;;;;;;5.38;2.70;;;;;;;18.71;34.37;102182.56;5057717;28;20045;-73
2022/05/09 05:34:52;;;;;;;7.00;2.90;;;;;;;18.88;34.31;102182.09;5045307;28;20094;-73
2022/05/09 05:37:19;;;;;;;6.10;2.72;;;;;;;19.08;34.37;102185.97;5053421;28;20044;-73
2022/05/09 05:39:47;;;;;;;4.57;2.58;;;;;;;19.27;34.07;102180.72;5054156;28;20059;-73
2022/05/09 05:42:17;;;;;;;4.18;2.60;;;;;;;19.45;33.95;102190.19;5058885;28;20111;-73
2022/05/09 05:44:46;;;;;;;4.70;2.75;;;;;;;19.60;33.30;102185.34;5048458;28;20048;-71
2022/05/09 05:47:16;;;;;;;3.95;2.55;;;;;;;19.75;33.12;102186.81;5045977;28;20056;-73
2022/05/09 05:49:42;;;;;;;5.65;2.75;;;;;;;19.87;33.07;102193.13;5057973;28;20409;-73
2022/05/09 05:52:11;;;;;;;5.00;3.13;;;;;;;19.97;32.97;102195.00;5054695;28;20102;-75
2022/05/09 05:54:42;;;;;;;5.03;2.63;;;;;;;20.06;32.55;102190.56;5049885;28;20041;-73
2022/05/09 05:57:29;;;;;;;5.13;2.42;;;;;;;20.14;32.85;102188.03;5053476;28;20502;-74
2022/05/09 06:00:03;;;;;;;6.03;2.90;;;;;;;20.16;32.54;102182.41;5052042;28;20139;-74
2022/05/09 06:02:31;;;;;;;4.50;2.42;;;;;;;20.18;32.48;102188.66;5051225;28;20052;-71
2022/05/09 06:04:58;;;;;;;5.72;2.38;;;;;;;20.19;32.40;102191.25;5045447;28;20045;-72
2022/05/09 06:07:25;;;;;;;5.05;2.40;;;;;;;20.20;32.84;102194.91;5048167;28;20489;-72
2022/05/09 06:09:52;;;;;;;4.50;2.63;;;;;;;20.21;32.38;102185.63;5048862;28;20044;-71
2022/05/09 06:12:21;;;;;;;4.45;2.45;;;;;;;20.22;32.57;102185.50;5056190;28;20067;-72
2022/05/09 06:17:35;;;;;;;5.90;2.42;;;;;;;20.26;33.08;102192.47;5048467;28;20187;-71
2022/05/09 06:20:08;;;;;;;6.57;2.83;;;;;;;20.33;32.86;102188.22;5044274;28;20037;-71
2022/05/09 06:22:38;;;;;;;4.55;2.50;;;;;;;20.36;32.81;102189.84;5045036;28;20048;-71
2022/05/09 06:25:08;;;;;;;3.92;2.22;;;;;;;20.47;32.54;102201.69;5063208;28;20055;-71
2022/05/09 06:27:35;;;;;;;5.25;2.70;;;;;;;20.54;32.99;102199.28;5045095;28;20479;-71
2022/05/09 06:30:05;;;;;;;4.75;2.15;;;;;;;20.69;32.74;102195.16;5042851;28;20057;-71
2022/05/09 06:32:35;;;;;;;4.55;2.60;;;;;;;20.82;32.33;102197.72;5054557;28;20055;-72
2022/05/09 06:35:07;;;;;;;4.38;2.40;;;;;;;21.00;32.10;102197.97;5058404;28;20040;-72
2022/05/09 06:37:35;;;;;;;5.30;2.08;;;;;;;21.11;32.53;102198.72;5057221;28;20124;-72
2022/05/09 06:40:03;;;;;;;5.78;2.20;;;;;;;21.29;32.17;102193.47;5053398;28;20040;-73
2022/05/09 06:42:31;;;;;;;3.70;2.40;;;;;;;21.47;32.08;102194.56;5055571;28;20139;-73
2022/05/09 06:44:57;;;;;;;3.22;2.10;;;;;;;21.64;31.91;102188.34;5058527;28;20482;-72
2022/05/09 06:47:24;;;;;;;4.18;2.13;;;;;;;21.81;32.08;102191.44;5046632;28;20101;-72
2022/05/09 06:49:50;;;;;;;3.80;1.90;;;;;;;21.98;31.59;102188.88;5042732;28;20049;-72
2022/05/09 06:52:17;;;;;;;6.45;2.65;;;;;;;22.13;31.22;102189.31;5052429;28;20476;-72
2022/05/09 06:54:44;;;;;;;3.92;2.03;;;;;;;22.28;31.27;102187.84;5053088;28;20055;-72
2022/05/09 06:57:10;;;;;;;5.15;2.40;;;;;;;22.40;31.16;102178.38;5049633;28;20068;-70
2022/05/09 06:59:37;;;;;;;4.03;2.17;;;;;;;22.55;30.97;102194.53;5046958;28;20040;-76
2022/05/09 07:02:04;;;;;;;5.75;2.15;;;;;;;22.66;30.65;102186.06;5052118;28;20467;-74
2022/05/09 07:04:31;;;;;;;5.65;2.30;;;;;;;22.79;30.65;102191.31;5037431;28;20410;-73
2022/05/09 07:06:57;;;;;;;4.00;1.90;;;;;;;22.91;30.83;102188.22;5056990;28;20110;-74
2022/05/09 07:09:24;;;;;;;4.00;2.10;;;;;;;23.03;30.04;102186.16;5068337;28;20050;-74
2022/05/09 07:11:51;;;;;;;5.72;2.03;;;;;;;23.13;30.27;102190.63;5038794;28;20036;-76
2022/05/09 07:14:19;;;;;;;4.13;2.08;;;;;;;23.26;29.60;102197.72;5035680;28;20052;-76
2022/05/09 07:16:46;;;;;;;4.45;1.90;;;;;;;23.37;30.13;102189.22;5043171;28;20053;-74
2022/05/09 07:19:14;;;;;;;4.53;1.90;;;;;;;23.46;29.67;102189.16;5054324;28;20052;-73
2022/05/09 07:21:41;;;;;;;4.45;1.90;;;;;;;23.58;29.71;102194.53;5052566;28;20048;-76
2022/05/09 07:24:10;;;;;;;3.33;2.00;;;;;;;23.71;29.49;102189.50;5048353;28;20489;-73
2022/05/09 07:26:37;;;;;;;4.45;2.40;;;;;;;23.77;29.93;102181.41;5056722;28;20043;-73
2022/05/09 07:29:07;;;;;;;3.75;1.80;;;;;;;23.88;29.96;102186.72;5051110;28;20067;-72
2022/05/09 07:31:34;;;;;;;3.28;2.03;;;;;;;23.99;29.94;102182.84;5050216;28;20056;-72
2022/05/09 07:34:01;;;;;;;3.97;2.03;;;;;;;24.09;29.38;102171.69;5044329;28;20544;-72
2022/05/09 07:36:27;;;;;;;4.32;2.25;;;;;;;24.17;29.28;102175.41;5050859;28;20136;-73
2022/05/09 07:38:54;;;;;;;4.32;2.00;;;;;;;24.27;28.99;102170.69;5048979;28;20056;-72
2022/05/09 07:41:20;;;;;;;6.55;2.15;;;;;;;24.36;28.87;102170.75;5051098;28;20086;-73
2022/05/09 07:43:47;;;;;;;5.05;2.00;;;;;;;24.45;29.07;102176.22;5051077;28;20044;-72
2022/05/09 07:46:14;;;;;;;4.70;2.08;;;;;;;24.54;29.28;102180.78;5054742;28;20075;-75
2022/05/09 07:49:01;;;;;;;2.80;1.70;;;;;;;24.64;29.43;102181.56;5055932;28;20489;-73
2022/05/09 07:51:28;;;;;;;4.78;2.03;;;;;;;24.77;29.03;102180.28;5044139;28;20048;-75
2022/05/09 07:53:54;;;;;;;3.50;1.80;;;;;;;24.88;29.19;102177.22;5068786;28;20059;-74
2022/05/09 07:56:21;;;;;;;4.50;2.17;;;;;;;24.99;29.13;102183.41;5060619;28;20408;-74
2022/05/09 07:58:48;;;;;;;4.13;1.98;;;;;;;25.11;29.12;102172.03;5053973;28;20413;-73
2022/05/09 08:01:14;;;;;;;4.55;2.00;;;;;;;25.23;29.16;102171.56;5049009;28;20586;-74
2022/05/09 08:03:42;;;;;;;5.07;1.80;;;;;;;25.35;28.91;102173.00;5040622;28;20044;-74
2022/05/09 08:06:09;;;;;;;3.92;1.98;;;;;;;25.46;28.15;102170.94;5050727;28;20136;-75
2022/05/09 08:08:36;;;;;;;3.13;1.80;;;;;;;25.58;27.88;102166.84;5052264;28;20048;-75
2022/05/09 08:11:16;;;;;;;3.80;1.80;;;;;;;25.68;27.96;102170.38;5051486;28;20470;-74
2022/05/09 08:13:44;;;;;;;5.82;2.25;;;;;;;25.78;27.50;102165.50;5062988;28;20049;-74
2022/05/09 08:16:12;;;;;;;5.00;2.30;;;;;;;25.86;27.68;102170.25;5039618;28;20045;-74
2022/05/09 08:18:40;;;;;;;4.40;2.40;;;;;;;25.93;27.73;102176.88;5068432;28;20497;-75
2022/05/09 08:21:09;;;;;;;3.50;2.05;;;;;;;26.01;27.17;102179.69;5050564;28;20083;-75
2022/05/09 08:23:43;;;;;;;4.55;1.95;;;;;;;26.04;27.57;102174.63;5070368;28;20143;-75
2022/05/09 08:26:11;;;;;;;4.47;2.20;;;;;;;26.10;27.53;102175.88;5046592;28;20049;-75
2022/05/09 08:28:39;;;;;;;5.20;2.30;;;;;;;26.13;27.42;102168.03;5032679;28;20101;-74
2022/05/09 08:31:06;;;;;;;4.70;2.30;;;;;;;26.19;27.54;102169.25;5052957;28;20067;-74
2022/05/09 08:33:33;;;;;;;4.50;2.35;;;;;;;26.25;27.22;102167.69;5056715;28;20083;-74
2022/05/09 08:36:03;;;;;;;4.40;2.17;;;;;;;26.32;27.48;102169.66;5052584;28;20130;-75
2022/05/09 08:38:31;;;;;;;4.40;2.20;;;;;;;26.40;27.84;102166.00;5059849;28;20048;-74
2022/05/09 08:41:04;;;;;;;5.75;2.55;;;;;;;26.50;26.87;102167.56;5064781;28;20039;-75
2022/05/09 08:43:48;;;;;;;4.57;2.40;;;;;;;26.56;26.67;102168.78;5056957;28;20044;-74
2022/05/09 08:46:36;;;;;;;4.78;2.90;;;;;;;26.62;26.76;102165.28;5083763;28;20063;-75
2022/05/09 08:49:15;;;;;;;5.75;2.42;;;;;;;26.66;26.86;102166.69;5055644;28;20052;-74
2022/05/09 08:51:57;;;;;;;6.07;2.95;;;;;;;26.69;26.74;102160.72;5046093;28;20107;-76
2022/05/09 08:54:26;;;;;;;5.28;2.53;;;;;;;26.69;26.87;102157.06;5053369;28;20102;-74
2022/05/09 08:57:05;;;;;;;3.55;2.45;;;;;;;26.77;26.69;102166.28;5053424;28;20060;-74
2022/05/09 08:59:58;;;;;;;4.18;2.70;;;;;;;26.77;26.87;102163.50;5055278;28;20464;-76
2022/05/09 09:02:35;;;;;;;4.75;2.25;;;;;;;26.83;27.52;102164.72;5050949;28;20086;-72
2022/05/09 09:05:03;;;;;;;5.20;2.45;;;;;;;26.91;27.23;102163.88;5051961;28;20055;-73
2022/05/09 09:08:00;;;;;;;4.75;2.40;;;;;;;27.03;26.63;102156.88;5053121;28;20075;-73
2022/05/09 09:11:02;;;;;;;4.13;2.17;;;;;;;27.04;27.21;102158.59;5047172;28;20048;-73
2022/05/09 09:13:39;;;;;;;;;;;;;;;26.84;27.70;102160.91;5036867;28;20408;-73
2022/05/09 09:16:47;;;;;;;4.63;2.50;;;;;;;27.20;27.35;102151.06;5064322;28;20416;-73
2022/05/09 09:19:52;;;;;;;4.28;2.35;;;;;;;27.33;27.32;102153.28;5053599;28;20094;-73
2022/05/09 09:22:42;;;;;;;5.93;3.10;;;;;;;27.44;26.82;102154.78;5046096;28;20116;-73
2022/05/09 09:25:22;;;;;;;4.65;3.00;;;;;;;27.55;26.76;102155.31;5052769;28;20054;-73
2022/05/09 09:27:55;;;;;;;5.35;3.08;;;;;;;27.65;26.93;102152.28;5053090;28;20040;-73
2022/05/09 09:30:24;;;;;;;5.97;3.00;;;;;;;27.73;26.86;102154.16;5061655;28;20207;-74
2022/05/09 09:33:04;;;;;;;5.07;2.70;;;;;;;27.81;26.54;102152.19;5047936;28;20099;-74
2022/05/09 09:35:36;;;;;;;3.95;2.75;;;;;;;27.84;26.77;102149.00;5050876;28;20048;-74
2022/05/09 09:38:14;;;;;;;4.90;2.95;;;;;;;27.95;26.58;102145.81;5050962;28;20048;-74
2022/05/09 09:40:41;;;;;;;6.07;2.78;;;;;;;28.01;26.84;102145.06;5052569;28;20453;-73
2022/05/09 09:43:08;;;;;;;4.70;2.67;;;;;;;28.09;26.94;102138.53;5050303;28;20068;-74
2022/05/09 09:45:35;;;;;;;4.97;3.13;;;;;;;28.18;26.45;102145.84;5054746;28;20146;-74
2022/05/09 09:48:14;;;;;;;6.00;3.35;;;;;;;28.29;26.55;102139.81;5051840;28;20044;-74
2022/05/09 09:51:03;;;;;;;4.75;2.95;;;;;;;28.35;26.56;102139.06;5053670;28;20158;-72
2022/05/09 09:53:36;;;;;;;4.57;2.85;;;;;;;28.45;26.48;102140.72;5053963;28;20041;-73
2022/05/09 09:56:07;;;;;;;4.65;2.97;;;;;;;28.55;26.52;102141.34;5056746;28;20122;-74
2022/05/09 09:58:38;;;;;;;5.35;3.05;;;;;;;28.62;26.40;102132.00;5052787;28;20587;-74
2022/05/09 10:01:07;;;;;;;5.55;3.60;;;;;;;28.73;25.76;102131.56;5052251;28;20053;-73
2022/05/09 10:03:38;;;;;;;5.13;3.20;;;;;;;28.79;26.27;102124.34;5048178;28;20057;-73
2022/05/09 10:06:16;;;;;;;5.53;2.85;;;;;;;28.90;25.72;102120.22;5054893;28;20060;-65
2022/05/09 10:08:44;;;;;;;4.78;3.13;;;;;;;28.95;26.08;102126.09;5048071;28;20052;-65
2022/05/09 10:11:22;;;;;;;5.00;3.45;;;;;;;29.05;25.26;102123.88;5043793;28;20107;-65
2022/05/09 10:13:52;;;;;;;6.10;3.35;;;;;;;29.10;25.72;102118.56;5037240;28;20117;-64
2022/05/09 10:16:28;;;;;;;4.95;3.13;;;;;;;29.17;25.22;102116.72;5050735;28;20117;-65
2022/05/09 10:19:01;;;;;;;6.78;3.63;;;;;;;29.24;25.12;102119.63;5053485;28;20102;-64
2022/05/09 10:24:47;;;;;;;6.38;3.35;;;;;;;29.25;25.32;102110.16;5055806;28;20057;-64
2022/05/09 10:27:22;;;;;;;5.13;3.28;;;;;;;29.29;25.35;102106.78;5043748;28;20048;-65
2022/05/09 10:29:54;;;;;;;4.55;3.22;;;;;;;29.35;25.24;102107.94;5052136;28;20055;-65
2022/05/09 10:32:28;;;;;;;4.88;3.30;;;;;;;29.36;25.37;102104.97;5048777;28;20041;-67
2022/05/09 10:35:15;;;;;;;4.57;2.92;;;;;;;29.38;25.35;102096.41;5064561;28;20054;-67
2022/05/09 10:37:59;;;;;;;4.82;3.05;;;;;;;29.42;25.21;102093.00;5062571;28;20052;-67
2022/05/09 10:40:37;;;;;;;4.70;3.20;;;;;;;29.48;25.31;102091.38;5047878;28;20112;-68
2022/05/09 10:43:11;;;;;;;4.65;3.05;;;;;;;29.52;24.94;102095.47;5051393;28;20056;-68
2022/05/09 10:45:48;;;;;;;4.20;3.30;;;;;;;29.58;25.12;102080.69;5053012;28;20109;-68
2022/05/09 10:48:34;;;;;;;3.60;2.75;;;;;;;29.60;25.48;102086.97;5056444;28;20555;-68
2022/05/09 10:51:10;;;;;;;4.75;3.33;;;;;;;29.68;24.89;102083.19;5043517;28;20045;-65
2022/05/09 10:54:22;;;;;;;4.63;2.95;;;;;;;29.69;25.15;102087.72;5051249;28;20040;-65
2022/05/09 10:57:04;;;;;;;4.32;2.85;;;;;;;29.80;25.00;102067.59;5040616;28;20049;-65
2022/05/09 10:59:39;;;;;;;5.45;3.33;;;;;;;29.86;25.33;102078.88;5046584;28;20044;-65
2022/05/09 11:02:29;;;;;;;5.10;3.70;;;;;;;29.93;24.47;102061.25;5042911;28;20488;-65
2022/05/09 11:04:56;;;;;;;3.65;2.90;;;;;;;29.97;25.07;102057.03;5048633;28;20051;-67
2022/05/09 11:07:29;;;;;;;4.25;3.03;;;;;;;30.03;24.88;102068.28;5052513;28;20045;-65
2022/05/09 11:10:17;;;;;;;4.47;3.25;;;;;;;30.06;24.46;102062.25;5039814;28;20126;-65
2022/05/09 11:13:01;;;;;;;4.93;3.15;;;;;;;30.11;24.32;102056.94;5061576;28;20415;-65
2022/05/09 11:16:18;;;;;;;3.95;3.05;;;;;;;30.06;24.72;102045.47;5046745;28;20053;-65
2022/05/09 11:19:29;;;;;;;5.55;3.30;;;;;;;30.12;24.26;102050.28;4994073;28;20086;-65
2022/05/09 11:22:06;;;;;;;5.53;2.92;;;;;;;30.21;24.17;102048.19;5041751;28;20056;-65
2022/05/09 11:24:59;;;;;;;4.10;3.30;;;;;;;30.26;24.13;102043.72;5045257;28;20048;-67
2022/05/09 11:27:30;;;;;;;4.65;3.00;;;;;;;30.26;24.35;102048.44;5058082;28;20059;-65
2022/05/09 11:30:43;;;;;;;4.90;3.45;;;;;;;30.30;23.82;102049.78;5055022;28;20048;-64
2022/05/09 11:33:22;;;;;;;6.05;3.47;;;;;;;30.34;23.72;102039.88;5080880;28;20111;-65
2022/05/09 11:35:55;;;;;;;5.88;3.33;;;;;;;30.35;23.65;102038.81;5065709;28;20598;-65
2022/05/09 11:38:55;;;;;;;5.05;3.67;;;;;;;30.35;23.44;102036.03;5051685;28;20079;-64
2022/05/09 11:41:46;;;;;;;5.35;3.65;;;;;;;30.33;23.17;102032.53;5049201;28;20063;-64
2022/05/09 11:44:13;;;;;;;5.68;3.40;;;;;;;30.28;23.61;102032.31;5050054;28;20452;-66
2022/05/09 11:46:55;;;;;;;4.72;3.40;;;;;;;30.29;23.83;102022.84;5051578;28;20056;-66
2022/05/09 11:49:46;;;;;;;4.32;3.38;;;;;;;30.27;23.99;102027.75;5045332;28;20052;-65
2022/05/09 11:52:30;;;;;;;5.15;3.22;;;;;;;30.23;23.73;102027.28;5061398;28;20383;-65
2022/05/09 11:55:21;;;;;;;4.57;3.08;;;;;;;30.21;23.86;102025.78;5049074;28;20048;-65
2022/05/09 11:57:53;;;;;;;4.93;3.10;;;;;;;30.25;23.56;102013.94;5071007;28;20052;-66